Oktaha, Oklahoma
Current Conditions -  °F | °C
As of 8:53 AM on Saturday 25 Oct 2014 (Local Time) from KMKO Reporting Station
Clear Clear  
Wind Chill: 63°   Ceiling: Unl
Heat Index: 63°   Visibility: 9mi
Dew Point: 60°   Wind: 6mph
Humidity: 90%   Direction: 170°S
Pressure: 30.11"   Gusts: NA
Location:  35.58°N, 95.47°W
Report Text: KMKO 251353Z AUTO 17005KT 9SM CLR 17/16 A3011 RMK AO2 SLP192 T01720156
Loading
Personal Weather Stations






























Interactive Weather Map
Tropical Storm Tracking
New forecast layout! Learn more

10-Day Weather Forecast

Advertisements
Track Severe Weather on mobile